sensor_id;sensor_type;location;lat;lon;timestamp;P1;durP1;ratioP1;P2;durP2;ratioP2
6145;SDS011;3104;50.348;7.620;2022-10-28T00:01:10;8.80;;;6.00;;
6145;SDS011;3104;50.348;7.620;2022-10-28T00:03:42;8.13;;;5.47;;
6145;SDS011;3104;50.348;7.620;2022-10-28T00:06:10;6.57;;;5.90;;
6145;SDS011;3104;50.348;7.620;2022-10-28T00:08:38;12.53;;;6.47;;
6145;SDS011;3104;50.348;7.620;2022-10-28T00:11:04;6.13;;;5.50;;
6145;SDS011;3104;50.348;7.620;2022-10-28T00:13:32;8.60;;;5.83;;
6145;SDS011;3104;50.348;7.620;2022-10-28T00:16:11;8.43;;;5.97;;
6145;SDS011;3104;50.348;7.620;2022-10-28T00:18:39;8.43;;;5.80;;
6145;SDS011;3104;50.348;7.620;2022-10-28T00:21:06;8.23;;;5.80;;
6145;SDS011;3104;50.348;7.620;2022-10-28T00:23:33;9.10;;;6.13;;
6145;SDS011;3104;50.348;7.620;2022-10-28T00:26:06;19.73;;;7.10;;
6145;SDS011;3104;50.348;7.620;2022-10-28T00:28:38;9.50;;;6.70;;
6145;SDS011;3104;50.348;7.620;2022-10-28T00:31:08;10.63;;;6.70;;
6145;SDS011;3104;50.348;7.620;2022-10-28T00:33:35;9.30;;;7.10;;
6145;SDS011;3104;50.348;7.620;2022-10-28T00:36:17;10.20;;;7.00;;
6145;SDS011;3104;50.348;7.620;2022-10-28T00:38:50;6.87;;;5.60;;
6145;SDS011;3104;50.348;7.620;2022-10-28T00:41:19;7.17;;;6.30;;
6145;SDS011;3104;50.348;7.620;2022-10-28T00:43:47;13.63;;;5.80;;
6145;SDS011;3104;50.348;7.620;2022-10-28T00:48:46;9.33;;;6.50;;
6145;SDS011;3104;50.348;7.620;2022-10-28T00:51:14;12.23;;;6.33;;
6145;SDS011;3104;50.348;7.620;2022-10-28T00:53:42;10.60;;;6.90;;
6145;SDS011;3104;50.348;7.620;2022-10-28T00:56:09;6.53;;;5.10;;
6145;SDS011;3104;50.348;7.620;2022-10-28T00:58:36;8.37;;;6.77;;
6145;SDS011;3104;50.348;7.620;2022-10-28T01:01:03;7.40;;;5.53;;
6145;SDS011;3104;50.348;7.620;2022-10-28T01:03:29;6.77;;;5.90;;
6145;SDS011;3104;50.348;7.620;2022-10-28T01:05:54;8.33;;;5.73;;
6145;SDS011;3104;50.348;7.620;2022-10-28T01:08:21;8.87;;;6.90;;
6145;SDS011;3104;50.348;7.620;2022-10-28T01:13:37;12.60;;;7.53;;
6145;SDS011;3104;50.348;7.620;2022-10-28T01:16:06;9.00;;;6.50;;
6145;SDS011;3104;50.348;7.620;2022-10-28T01:18:59;9.30;;;6.40;;
6145;SDS011;3104;50.348;7.620;2022-10-28T01:24:16;12.77;;;7.50;;
6145;SDS011;3104;50.348;7.620;2022-10-28T01:27:10;14.23;;;8.00;;
6145;SDS011;3104;50.348;7.620;2022-10-28T01:30:15;9.10;;;6.77;;
6145;SDS011;3104;50.348;7.620;2022-10-28T01:40:28;10.47;;;6.57;;
6145;SDS011;3104;50.348;7.620;2022-10-28T01:43:17;8.80;;;5.80;;
6145;SDS011;3104;50.348;7.620;2022-10-28T01:45:51;9.77;;;6.50;;
6145;SDS011;3104;50.348;7.620;2022-10-28T01:48:29;11.40;;;5.90;;
6145;SDS011;3104;50.348;7.620;2022-10-28T01:53:33;11.23;;;5.93;;
6145;SDS011;3104;50.348;7.620;2022-10-28T01:56:05;6.17;;;5.57;;
6145;SDS011;3104;50.348;7.620;2022-10-28T01:58:34;8.80;;;5.50;;
6145;SDS011;3104;50.348;7.620;2022-10-28T02:01:03;6.07;;;4.93;;
6145;SDS011;3104;50.348;7.620;2022-10-28T02:03:31;8.97;;;5.23;;
6145;SDS011;3104;50.348;7.620;2022-10-28T02:05:57;8.03;;;4.83;;
6145;SDS011;3104;50.348;7.620;2022-10-28T02:16:49;12.20;;;7.63;;
6145;SDS011;3104;50.348;7.620;2022-10-28T02:19:41;9.70;;;6.47;;
6145;SDS011;3104;50.348;7.620;2022-10-28T02:22:19;13.13;;;7.37;;
6145;SDS011;3104;50.348;7.620;2022-10-28T02:27:46;9.80;;;6.30;;
6145;SDS011;3104;50.348;7.620;2022-10-28T02:30:36;8.50;;;6.60;;
6145;SDS011;3104;50.348;7.620;2022-10-28T02:33:25;11.63;;;6.30;;
6145;SDS011;3104;50.348;7.620;2022-10-28T02:35:54;9.77;;;7.20;;
6145;SDS011;3104;50.348;7.620;2022-10-28T02:38:28;10.33;;;6.47;;
6145;SDS011;3104;50.348;7.620;2022-10-28T02:40:59;13.57;;;7.00;;
6145;SDS011;3104;50.348;7.620;2022-10-28T02:43:28;14.60;;;6.70;;
6145;SDS011;3104;50.348;7.620;2022-10-28T02:45:57;7.13;;;6.37;;
6145;SDS011;3104;50.348;7.620;2022-10-28T02:51:10;7.47;;;5.43;;
6145;SDS011;3104;50.348;7.620;2022-10-28T02:56:16;6.50;;;5.40;;
6145;SDS011;3104;50.348;7.620;2022-10-28T02:58:44;10.50;;;6.80;;
6145;SDS011;3104;50.348;7.620;2022-10-28T03:01:10;7.97;;;6.60;;
6145;SDS011;3104;50.348;7.620;2022-10-28T03:03:35;11.57;;;6.70;;
6145;SDS011;3104;50.348;7.620;2022-10-28T03:06:01;11.20;;;5.90;;
6145;SDS011;3104;50.348;7.620;2022-10-28T03:08:26;6.23;;;5.60;;
6145;SDS011;3104;50.348;7.620;2022-10-28T03:10:52;9.07;;;6.37;;
6145;SDS011;3104;50.348;7.620;2022-10-28T03:13:17;14.20;;;7.93;;
6145;SDS011;3104;50.348;7.620;2022-10-28T03:15:43;8.27;;;5.80;;
6145;SDS011;3104;50.348;7.620;2022-10-28T03:18:08;6.90;;;5.80;;
6145;SDS011;3104;50.348;7.620;2022-10-28T03:20:34;9.40;;;5.63;;
6145;SDS011;3104;50.348;7.620;2022-10-28T03:22:59;11.30;;;6.60;;
6145;SDS011;3104;50.348;7.620;2022-10-28T03:25:25;9.67;;;6.53;;
6145;SDS011;3104;50.348;7.620;2022-10-28T03:27:51;8.87;;;6.10;;
6145;SDS011;3104;50.348;7.620;2022-10-28T03:30:16;9.70;;;6.97;;
6145;SDS011;3104;50.348;7.620;2022-10-28T03:32:43;13.47;;;6.07;;
6145;SDS011;3104;50.348;7.620;2022-10-28T03:35:08;8.03;;;7.23;;
6145;SDS011;3104;50.348;7.620;2022-10-28T03:37:34;9.17;;;6.07;;
6145;SDS011;3104;50.348;7.620;2022-10-28T03:40:00;7.80;;;5.70;;
6145;SDS011;3104;50.348;7.620;2022-10-28T03:42:27;11.57;;;6.13;;
6145;SDS011;3104;50.348;7.620;2022-10-28T03:44:52;6.63;;;5.70;;
6145;SDS011;3104;50.348;7.620;2022-10-28T03:47:18;7.20;;;5.90;;
6145;SDS011;3104;50.348;7.620;2022-10-28T03:49:44;7.23;;;5.10;;
6145;SDS011;3104;50.348;7.620;2022-10-28T03:52:09;9.43;;;5.90;;
6145;SDS011;3104;50.348;7.620;2022-10-28T03:54:35;15.77;;;6.13;;
6145;SDS011;3104;50.348;7.620;2022-10-28T03:57:00;10.27;;;5.93;;
6145;SDS011;3104;50.348;7.620;2022-10-28T03:59:26;9.73;;;6.30;;
6145;SDS011;3104;50.348;7.620;2022-10-28T04:01:51;12.87;;;5.67;;
6145;SDS011;3104;50.348;7.620;2022-10-28T04:04:17;13.07;;;5.30;;
6145;SDS011;3104;50.348;7.620;2022-10-28T04:06:42;8.17;;;5.53;;
6145;SDS011;3104;50.348;7.620;2022-10-28T04:09:08;9.07;;;5.67;;
6145;SDS011;3104;50.348;7.620;2022-10-28T04:11:34;8.20;;;5.23;;
6145;SDS011;3104;50.348;7.620;2022-10-28T04:13:59;8.00;;;5.03;;
6145;SDS011;3104;50.348;7.620;2022-10-28T04:16:25;10.20;;;5.23;;
6145;SDS011;3104;50.348;7.620;2022-10-28T04:18:50;10.90;;;5.60;;
6145;SDS011;3104;50.348;7.620;2022-10-28T04:21:16;6.13;;;4.53;;
6145;SDS011;3104;50.348;7.620;2022-10-28T04:23:41;11.70;;;6.50;;
6145;SDS011;3104;50.348;7.620;2022-10-28T04:26:07;9.40;;;4.73;;
6145;SDS011;3104;50.348;7.620;2022-10-28T04:28:33;8.63;;;5.13;;
6145;SDS011;3104;50.348;7.620;2022-10-28T04:30:58;9.50;;;4.53;;
6145;SDS011;3104;50.348;7.620;2022-10-28T04:33:26;5.70;;;4.53;;
6145;SDS011;3104;50.348;7.620;2022-10-28T04:35:52;7.83;;;5.10;;
6145;SDS011;3104;50.348;7.620;2022-10-28T04:38:17;7.23;;;5.20;;
6145;SDS011;3104;50.348;7.620;2022-10-28T04:40:47;11.30;;;5.17;;
6145;SDS011;3104;50.348;7.620;2022-10-28T04:43:13;7.63;;;4.50;;
6145;SDS011;3104;50.348;7.620;2022-10-28T04:45:39;6.83;;;4.50;;
6145;SDS011;3104;50.348;7.620;2022-10-28T04:48:05;7.17;;;4.40;;
6145;SDS011;3104;50.348;7.620;2022-10-28T04:50:30;9.40;;;4.60;;
6145;SDS011;3104;50.348;7.620;2022-10-28T04:52:56;9.00;;;4.20;;
6145;SDS011;3104;50.348;7.620;2022-10-28T04:55:22;14.33;;;5.10;;
6145;SDS011;3104;50.348;7.620;2022-10-28T04:57:54;11.30;;;4.50;;
6145;SDS011;3104;50.348;7.620;2022-10-28T05:00:21;7.87;;;4.47;;
6145;SDS011;3104;50.348;7.620;2022-10-28T05:02:48;9.43;;;6.23;;
6145;SDS011;3104;50.348;7.620;2022-10-28T05:05:13;9.27;;;4.70;;
6145;SDS011;3104;50.348;7.620;2022-10-28T05:07:39;9.80;;;4.93;;
6145;SDS011;3104;50.348;7.620;2022-10-28T05:10:05;8.57;;;5.00;;
6145;SDS011;3104;50.348;7.620;2022-10-28T05:12:30;7.37;;;4.90;;
6145;SDS011;3104;50.348;7.620;2022-10-28T05:14:56;8.90;;;4.67;;
6145;SDS011;3104;50.348;7.620;2022-10-28T05:17:22;6.97;;;4.30;;
6145;SDS011;3104;50.348;7.620;2022-10-28T05:19:47;9.70;;;5.33;;
6145;SDS011;3104;50.348;7.620;2022-10-28T05:22:13;7.87;;;4.57;;
6145;SDS011;3104;50.348;7.620;2022-10-28T05:24:38;11.93;;;4.83;;
6145;SDS011;3104;50.348;7.620;2022-10-28T05:27:04;10.87;;;5.03;;
6145;SDS011;3104;50.348;7.620;2022-10-28T05:29:30;9.50;;;5.20;;
6145;SDS011;3104;50.348;7.620;2022-10-28T05:31:55;9.50;;;4.93;;
6145;SDS011;3104;50.348;7.620;2022-10-28T05:34:21;7.13;;;3.93;;
6145;SDS011;3104;50.348;7.620;2022-10-28T05:36:46;5.67;;;4.40;;
6145;SDS011;3104;50.348;7.620;2022-10-28T05:39:14;6.93;;;4.10;;
6145;SDS011;3104;50.348;7.620;2022-10-28T05:41:39;8.70;;;4.53;;
6145;SDS011;3104;50.348;7.620;2022-10-28T05:44:05;6.93;;;4.40;;
6145;SDS011;3104;50.348;7.620;2022-10-28T05:46:30;10.50;;;4.50;;
6145;SDS011;3104;50.348;7.620;2022-10-28T05:48:56;8.50;;;4.13;;
6145;SDS011;3104;50.348;7.620;2022-10-28T05:51:22;7.87;;;5.00;;
6145;SDS011;3104;50.348;7.620;2022-10-28T05:53:47;16.80;;;5.87;;
6145;SDS011;3104;50.348;7.620;2022-10-28T05:56:15;9.50;;;4.13;;
6145;SDS011;3104;50.348;7.620;2022-10-28T05:58:43;7.20;;;3.87;;
6145;SDS011;3104;50.348;7.620;2022-10-28T06:01:09;6.27;;;4.10;;
6145;SDS011;3104;50.348;7.620;2022-10-28T06:03:34;8.73;;;4.40;;
6145;SDS011;3104;50.348;7.620;2022-10-28T06:06:00;9.60;;;4.03;;
6145;SDS011;3104;50.348;7.620;2022-10-28T06:08:26;10.00;;;5.57;;
6145;SDS011;3104;50.348;7.620;2022-10-28T06:10:52;6.13;;;4.00;;
6145;SDS011;3104;50.348;7.620;2022-10-28T06:13:18;8.77;;;5.03;;
6145;SDS011;3104;50.348;7.620;2022-10-28T06:15:51;8.60;;;4.07;;
6145;SDS011;3104;50.348;7.620;2022-10-28T06:18:18;9.30;;;4.83;;
6145;SDS011;3104;50.348;7.620;2022-10-28T06:20:49;9.80;;;6.00;;
6145;SDS011;3104;50.348;7.620;2022-10-28T06:23:22;7.33;;;5.60;;
6145;SDS011;3104;50.348;7.620;2022-10-28T06:25:48;6.63;;;5.30;;
6145;SDS011;3104;50.348;7.620;2022-10-28T06:28:14;12.07;;;8.27;;
6145;SDS011;3104;50.348;7.620;2022-10-28T06:30:40;12.43;;;5.27;;
6145;SDS011;3104;50.348;7.620;2022-10-28T06:33:05;9.83;;;6.40;;
6145;SDS011;3104;50.348;7.620;2022-10-28T06:35:31;11.03;;;6.10;;
6145;SDS011;3104;50.348;7.620;2022-10-28T06:37:56;8.00;;;4.97;;
6145;SDS011;3104;50.348;7.620;2022-10-28T06:40:22;9.80;;;5.80;;
6145;SDS011;3104;50.348;7.620;2022-10-28T06:42:55;11.70;;;6.10;;
6145;SDS011;3104;50.348;7.620;2022-10-28T06:45:22;19.53;;;6.57;;
6145;SDS011;3104;50.348;7.620;2022-10-28T06:47:48;11.80;;;5.63;;
6145;SDS011;3104;50.348;7.620;2022-10-28T06:50:13;6.10;;;5.20;;
6145;SDS011;3104;50.348;7.620;2022-10-28T06:52:39;9.10;;;5.97;;
6145;SDS011;3104;50.348;7.620;2022-10-28T06:55:05;11.33;;;5.40;;
6145;SDS011;3104;50.348;7.620;2022-10-28T06:57:30;10.87;;;6.20;;
6145;SDS011;3104;50.348;7.620;2022-10-28T06:59:56;8.83;;;6.63;;
6145;SDS011;3104;50.348;7.620;2022-10-28T07:02:21;8.93;;;5.43;;
6145;SDS011;3104;50.348;7.620;2022-10-28T07:04:47;8.47;;;5.40;;
6145;SDS011;3104;50.348;7.620;2022-10-28T07:07:12;8.40;;;4.63;;
6145;SDS011;3104;50.348;7.620;2022-10-28T07:09:38;7.00;;;5.20;;
6145;SDS011;3104;50.348;7.620;2022-10-28T07:12:05;6.83;;;4.70;;
6145;SDS011;3104;50.348;7.620;2022-10-28T07:14:31;10.13;;;5.10;;
6145;SDS011;3104;50.348;7.620;2022-10-28T07:16:58;12.87;;;5.30;;
6145;SDS011;3104;50.348;7.620;2022-10-28T07:19:24;8.40;;;4.30;;
6145;SDS011;3104;50.348;7.620;2022-10-28T07:21:50;8.90;;;4.80;;
6145;SDS011;3104;50.348;7.620;2022-10-28T07:24:15;6.50;;;4.67;;
6145;SDS011;3104;50.348;7.620;2022-10-28T07:26:41;9.17;;;3.77;;
6145;SDS011;3104;50.348;7.620;2022-10-28T07:29:06;5.83;;;4.53;;
6145;SDS011;3104;50.348;7.620;2022-10-28T07:31:32;11.43;;;4.30;;
6145;SDS011;3104;50.348;7.620;2022-10-28T07:33:57;6.23;;;4.30;;
6145;SDS011;3104;50.348;7.620;2022-10-28T07:36:23;9.00;;;4.70;;
6145;SDS011;3104;50.348;7.620;2022-10-28T07:38:49;11.50;;;3.83;;
6145;SDS011;3104;50.348;7.620;2022-10-28T07:41:19;10.67;;;5.30;;
6145;SDS011;3104;50.348;7.620;2022-10-28T07:43:45;6.60;;;4.40;;
6145;SDS011;3104;50.348;7.620;2022-10-28T07:46:11;11.77;;;4.67;;
6145;SDS011;3104;50.348;7.620;2022-10-28T07:48:37;7.93;;;4.90;;
6145;SDS011;3104;50.348;7.620;2022-10-28T07:51:04;11.13;;;4.30;;
6145;SDS011;3104;50.348;7.620;2022-10-28T07:53:30;9.27;;;4.43;;
6145;SDS011;3104;50.348;7.620;2022-10-28T07:55:56;8.70;;;4.10;;
6145;SDS011;3104;50.348;7.620;2022-10-28T07:58:23;10.33;;;4.40;;
6145;SDS011;3104;50.348;7.620;2022-10-28T08:00:49;9.20;;;6.27;;
6145;SDS011;3104;50.348;7.620;2022-10-28T08:03:15;9.67;;;3.90;;
6145;SDS011;3104;50.348;7.620;2022-10-28T08:05:40;9.67;;;4.63;;
6145;SDS011;3104;50.348;7.620;2022-10-28T08:08:06;8.50;;;4.20;;
6145;SDS011;3104;50.348;7.620;2022-10-28T08:10:31;8.40;;;3.90;;
6145;SDS011;3104;50.348;7.620;2022-10-28T08:12:57;7.57;;;5.00;;
6145;SDS011;3104;50.348;7.620;2022-10-28T08:15:24;7.77;;;4.00;;
6145;SDS011;3104;50.348;7.620;2022-10-28T08:17:51;10.63;;;4.90;;
6145;SDS011;3104;50.348;7.620;2022-10-28T08:20:17;5.63;;;4.43;;
6145;SDS011;3104;50.348;7.620;2022-10-28T08:22:43;8.07;;;3.83;;
6145;SDS011;3104;50.348;7.620;2022-10-28T08:25:09;6.43;;;4.90;;
6145;SDS011;3104;50.348;7.620;2022-10-28T08:27:35;7.33;;;3.77;;
6145;SDS011;3104;50.348;7.620;2022-10-28T08:30:00;8.37;;;3.80;;
6145;SDS011;3104;50.348;7.620;2022-10-28T08:32:26;7.23;;;4.43;;
6145;SDS011;3104;50.348;7.620;2022-10-28T08:34:51;8.27;;;4.43;;
6145;SDS011;3104;50.348;7.620;2022-10-28T08:37:17;7.43;;;3.50;;
6145;SDS011;3104;50.348;7.620;2022-10-28T08:39:42;5.97;;;3.77;;
6145;SDS011;3104;50.348;7.620;2022-10-28T08:44:56;5.80;;;4.07;;
6145;SDS011;3104;50.348;7.620;2022-10-28T08:50:23;5.33;;;4.20;;
6145;SDS011;3104;50.348;7.620;2022-10-28T08:55:43;10.93;;;4.80;;
6145;SDS011;3104;50.348;7.620;2022-10-28T08:58:21;11.07;;;4.50;;
6145;SDS011;3104;50.348;7.620;2022-10-28T09:00:54;9.17;;;5.80;;
6145;SDS011;3104;50.348;7.620;2022-10-28T09:03:24;8.20;;;5.63;;
6145;SDS011;3104;50.348;7.620;2022-10-28T09:05:58;7.57;;;3.73;;
6145;SDS011;3104;50.348;7.620;2022-10-28T09:08:35;5.43;;;3.80;;
6145;SDS011;3104;50.348;7.620;2022-10-28T09:16:06;6.93;;;3.60;;
6145;SDS011;3104;50.348;7.620;2022-10-28T09:18:43;9.23;;;4.63;;
6145;SDS011;3104;50.348;7.620;2022-10-28T09:21:20;8.20;;;4.40;;
6145;SDS011;3104;50.348;7.620;2022-10-28T09:23:55;9.87;;;4.60;;
6145;SDS011;3104;50.348;7.620;2022-10-28T09:26:25;7.93;;;3.87;;
6145;SDS011;3104;50.348;7.620;2022-10-28T09:31:45;4.60;;;3.90;;
6145;SDS011;3104;50.348;7.620;2022-10-28T09:34:18;7.43;;;4.90;;
6145;SDS011;3104;50.348;7.620;2022-10-28T09:37:40;13.90;;;4.67;;
6145;SDS011;3104;50.348;7.620;2022-10-28T09:42:40;6.87;;;4.20;;
6145;SDS011;3104;50.348;7.620;2022-10-28T09:45:24;8.33;;;4.27;;
6145;SDS011;3104;50.348;7.620;2022-10-28T09:48:04;11.80;;;4.67;;
6145;SDS011;3104;50.348;7.620;2022-10-28T09:50:53;9.20;;;5.60;;
6145;SDS011;3104;50.348;7.620;2022-10-28T09:55:54;10.50;;;4.00;;
6145;SDS011;3104;50.348;7.620;2022-10-28T09:58:21;9.97;;;5.00;;
6145;SDS011;3104;50.348;7.620;2022-10-28T10:00:47;11.47;;;4.83;;
6145;SDS011;3104;50.348;7.620;2022-10-28T10:03:14;10.87;;;4.53;;
6145;SDS011;3104;50.348;7.620;2022-10-28T10:05:41;11.97;;;4.17;;
6145;SDS011;3104;50.348;7.620;2022-10-28T10:08:13;7.47;;;4.17;;
6145;SDS011;3104;50.348;7.620;2022-10-28T10:10:45;6.93;;;4.27;;
6145;SDS011;3104;50.348;7.620;2022-10-28T10:13:32;8.37;;;4.43;;
6145;SDS011;3104;50.348;7.620;2022-10-28T10:16:01;9.10;;;4.60;;
6145;SDS011;3104;50.348;7.620;2022-10-28T10:18:33;8.27;;;4.50;;
6145;SDS011;3104;50.348;7.620;2022-10-28T10:21:00;6.33;;;4.40;;
6145;SDS011;3104;50.348;7.620;2022-10-28T10:23:33;5.77;;;3.63;;
6145;SDS011;3104;50.348;7.620;2022-10-28T10:26:13;10.40;;;4.87;;
6145;SDS011;3104;50.348;7.620;2022-10-28T10:28:44;11.00;;;5.00;;
6145;SDS011;3104;50.348;7.620;2022-10-28T10:31:19;7.83;;;4.70;;
6145;SDS011;3104;50.348;7.620;2022-10-28T10:33:47;5.23;;;4.53;;
6145;SDS011;3104;50.348;7.620;2022-10-28T10:36:15;8.47;;;4.67;;
6145;SDS011;3104;50.348;7.620;2022-10-28T10:41:45;7.60;;;4.60;;
6145;SDS011;3104;50.348;7.620;2022-10-28T10:46:45;8.93;;;4.37;;
6145;SDS011;3104;50.348;7.620;2022-10-28T10:49:31;12.23;;;4.23;;
6145;SDS011;3104;50.348;7.620;2022-10-28T10:51:58;8.70;;;4.30;;
6145;SDS011;3104;50.348;7.620;2022-10-28T10:54:26;6.70;;;4.30;;
6145;SDS011;3104;50.348;7.620;2022-10-28T10:57:09;9.33;;;3.90;;
6145;SDS011;3104;50.348;7.620;2022-10-28T10:59:44;13.20;;;4.70;;
6145;SDS011;3104;50.348;7.620;2022-10-28T11:02:20;6.13;;;4.50;;
6145;SDS011;3104;50.348;7.620;2022-10-28T11:05:04;8.67;;;4.00;;
6145;SDS011;3104;50.348;7.620;2022-10-28T11:07:32;11.47;;;4.80;;
6145;SDS011;3104;50.348;7.620;2022-10-28T11:09:58;10.27;;;4.63;;
6145;SDS011;3104;50.348;7.620;2022-10-28T11:12:31;9.63;;;4.03;;
6145;SDS011;3104;50.348;7.620;2022-10-28T11:17:40;8.33;;;4.60;;
6145;SDS011;3104;50.348;7.620;2022-10-28T11:20:26;7.70;;;4.50;;
6145;SDS011;3104;50.348;7.620;2022-10-28T11:26:02;11.53;;;5.23;;
6145;SDS011;3104;50.348;7.620;2022-10-28T11:28:37;10.23;;;5.87;;
6145;SDS011;3104;50.348;7.620;2022-10-28T11:40:09;7.40;;;4.30;;
6145;SDS011;3104;50.348;7.620;2022-10-28T11:42:34;13.90;;;4.90;;
6145;SDS011;3104;50.348;7.620;2022-10-28T11:51:22;6.40;;;4.40;;
6145;SDS011;3104;50.348;7.620;2022-10-28T11:54:23;10.70;;;4.50;;
6145;SDS011;3104;50.348;7.620;2022-10-28T12:02:26;11.00;;;4.37;;
6145;SDS011;3104;50.348;7.620;2022-10-28T12:05:27;13.67;;;5.63;;
6145;SDS011;3104;50.348;7.620;2022-10-28T12:11:12;6.57;;;4.30;;
6145;SDS011;3104;50.348;7.620;2022-10-28T12:19:18;7.90;;;4.40;;
6145;SDS011;3104;50.348;7.620;2022-10-28T12:21:56;12.10;;;5.40;;
6145;SDS011;3104;50.348;7.620;2022-10-28T12:24:28;7.27;;;3.90;;
6145;SDS011;3104;50.348;7.620;2022-10-28T12:26:59;6.00;;;4.23;;
6145;SDS011;3104;50.348;7.620;2022-10-28T12:29:40;8.33;;;4.73;;
6145;SDS011;3104;50.348;7.620;2022-10-28T12:32:10;8.60;;;4.33;;
6145;SDS011;3104;50.348;7.620;2022-10-28T12:34:40;6.23;;;4.47;;
6145;SDS011;3104;50.348;7.620;2022-10-28T12:37:17;8.10;;;4.80;;
6145;SDS011;3104;50.348;7.620;2022-10-28T12:42:52;10.20;;;5.30;;
6145;SDS011;3104;50.348;7.620;2022-10-28T12:45:22;9.93;;;4.53;;
6145;SDS011;3104;50.348;7.620;2022-10-28T12:50:37;9.20;;;4.10;;
6145;SDS011;3104;50.348;7.620;2022-10-28T12:56:31;11.60;;;4.50;;
6145;SDS011;3104;50.348;7.620;2022-10-28T12:59:03;6.60;;;4.80;;
6145;SDS011;3104;50.348;7.620;2022-10-28T13:01:35;8.00;;;4.27;;
6145;SDS011;3104;50.348;7.620;2022-10-28T13:04:01;13.30;;;4.97;;
6145;SDS011;3104;50.348;7.620;2022-10-28T13:16:45;11.63;;;5.17;;
6145;SDS011;3104;50.348;7.620;2022-10-28T13:19:36;7.67;;;4.53;;
6145;SDS011;3104;50.348;7.620;2022-10-28T13:25:25;8.70;;;4.20;;
6145;SDS011;3104;50.348;7.620;2022-10-28T13:28:03;10.00;;;4.87;;
6145;SDS011;3104;50.348;7.620;2022-10-28T13:30:29;10.30;;;5.10;;
6145;SDS011;3104;50.348;7.620;2022-10-28T13:35:40;12.30;;;5.70;;
6145;SDS011;3104;50.348;7.620;2022-10-28T13:38:09;13.47;;;5.00;;
6145;SDS011;3104;50.348;7.620;2022-10-28T13:43:02;7.50;;;5.43;;
6145;SDS011;3104;50.348;7.620;2022-10-28T13:53:51;8.03;;;4.80;;
6145;SDS011;3104;50.348;7.620;2022-10-28T13:56:24;9.47;;;4.57;;
6145;SDS011;3104;50.348;7.620;2022-10-28T13:59:23;10.13;;;4.90;;
6145;SDS011;3104;50.348;7.620;2022-10-28T14:01:51;6.40;;;4.70;;
6145;SDS011;3104;50.348;7.620;2022-10-28T14:09:36;8.27;;;4.80;;
6145;SDS011;3104;50.348;7.620;2022-10-28T14:12:23;8.40;;;4.50;;
6145;SDS011;3104;50.348;7.620;2022-10-28T14:17:26;14.07;;;4.87;;
6145;SDS011;3104;50.348;7.620;2022-10-28T14:20:05;10.67;;;5.93;;
6145;SDS011;3104;50.348;7.620;2022-10-28T14:22:50;12.67;;;4.83;;
6145;SDS011;3104;50.348;7.620;2022-10-28T14:42:02;11.20;;;5.30;;
6145;SDS011;3104;50.348;7.620;2022-10-28T14:50:18;6.27;;;4.13;;
6145;SDS011;3104;50.348;7.620;2022-10-28T14:52:46;9.13;;;5.80;;
6145;SDS011;3104;50.348;7.620;2022-10-28T14:58:22;7.50;;;5.70;;
6145;SDS011;3104;50.348;7.620;2022-10-28T15:03:29;12.80;;;5.37;;
6145;SDS011;3104;50.348;7.620;2022-10-28T15:05:55;14.10;;;5.43;;
6145;SDS011;3104;50.348;7.620;2022-10-28T15:08:27;10.33;;;4.87;;
6145;SDS011;3104;50.348;7.620;2022-10-28T15:10:53;11.53;;;5.03;;
6145;SDS011;3104;50.348;7.620;2022-10-28T15:13:18;8.63;;;5.17;;
6145;SDS011;3104;50.348;7.620;2022-10-28T15:15:52;7.03;;;4.80;;
6145;SDS011;3104;50.348;7.620;2022-10-28T15:18:23;7.73;;;5.00;;
6145;SDS011;3104;50.348;7.620;2022-10-28T15:21:05;9.20;;;4.97;;
6145;SDS011;3104;50.348;7.620;2022-10-28T15:23:34;6.70;;;4.40;;
6145;SDS011;3104;50.348;7.620;2022-10-28T15:26:07;8.20;;;5.33;;
6145;SDS011;3104;50.348;7.620;2022-10-28T15:28:37;11.03;;;4.83;;
6145;SDS011;3104;50.348;7.620;2022-10-28T15:31:03;9.40;;;4.90;;
6145;SDS011;3104;50.348;7.620;2022-10-28T15:33:30;10.23;;;4.70;;
6145;SDS011;3104;50.348;7.620;2022-10-28T15:38:40;7.83;;;4.43;;
6145;SDS011;3104;50.348;7.620;2022-10-28T15:44:00;10.10;;;4.47;;
6145;SDS011;3104;50.348;7.620;2022-10-28T15:46:27;14.80;;;5.00;;
6145;SDS011;3104;50.348;7.620;2022-10-28T15:48:58;12.07;;;5.40;;
6145;SDS011;3104;50.348;7.620;2022-10-28T15:51:25;10.93;;;4.93;;
6145;SDS011;3104;50.348;7.620;2022-10-28T15:54:17;9.93;;;4.50;;
6145;SDS011;3104;50.348;7.620;2022-10-28T15:56:52;10.50;;;4.73;;
6145;SDS011;3104;50.348;7.620;2022-10-28T15:59:20;9.73;;;5.07;;
6145;SDS011;3104;50.348;7.620;2022-10-28T16:01:47;11.77;;;5.30;;
6145;SDS011;3104;50.348;7.620;2022-10-28T16:06:51;10.47;;;4.60;;
6145;SDS011;3104;50.348;7.620;2022-10-28T16:09:23;9.50;;;5.63;;
6145;SDS011;3104;50.348;7.620;2022-10-28T16:11:54;13.40;;;5.10;;
6145;SDS011;3104;50.348;7.620;2022-10-28T16:14:36;9.30;;;4.90;;
6145;SDS011;3104;50.348;7.620;2022-10-28T16:17:24;8.67;;;4.73;;
6145;SDS011;3104;50.348;7.620;2022-10-28T16:20:08;11.60;;;4.60;;
6145;SDS011;3104;50.348;7.620;2022-10-28T16:22:40;11.13;;;5.80;;
6145;SDS011;3104;50.348;7.620;2022-10-28T16:25:13;11.10;;;5.30;;
6145;SDS011;3104;50.348;7.620;2022-10-28T16:27:40;13.47;;;4.90;;
6145;SDS011;3104;50.348;7.620;2022-10-28T16:30:05;7.37;;;4.83;;
6145;SDS011;3104;50.348;7.620;2022-10-28T16:32:42;9.03;;;5.07;;
6145;SDS011;3104;50.348;7.620;2022-10-28T16:35:20;7.57;;;5.00;;
6145;SDS011;3104;50.348;7.620;2022-10-28T16:37:47;11.70;;;4.97;;
6145;SDS011;3104;50.348;7.620;2022-10-28T16:40:13;9.57;;;5.07;;
6145;SDS011;3104;50.348;7.620;2022-10-28T16:42:39;11.67;;;5.43;;
6145;SDS011;3104;50.348;7.620;2022-10-28T16:45:05;10.43;;;5.10;;
6145;SDS011;3104;50.348;7.620;2022-10-28T16:47:31;9.50;;;4.87;;
6145;SDS011;3104;50.348;7.620;2022-10-28T16:49:57;9.90;;;5.40;;
6145;SDS011;3104;50.348;7.620;2022-10-28T16:52:27;7.67;;;4.43;;
6145;SDS011;3104;50.348;7.620;2022-10-28T16:54:54;8.17;;;4.20;;
6145;SDS011;3104;50.348;7.620;2022-10-28T16:57:20;10.43;;;6.13;;
6145;SDS011;3104;50.348;7.620;2022-10-28T16:59:46;15.03;;;6.53;;
6145;SDS011;3104;50.348;7.620;2022-10-28T17:02:26;10.60;;;5.63;;
6145;SDS011;3104;50.348;7.620;2022-10-28T17:04:56;17.63;;;7.30;;
6145;SDS011;3104;50.348;7.620;2022-10-28T17:07:23;9.23;;;5.73;;
6145;SDS011;3104;50.348;7.620;2022-10-28T17:09:49;9.30;;;6.30;;
6145;SDS011;3104;50.348;7.620;2022-10-28T17:12:17;11.80;;;6.50;;
6145;SDS011;3104;50.348;7.620;2022-10-28T17:14:46;13.97;;;5.90;;
6145;SDS011;3104;50.348;7.620;2022-10-28T17:17:12;12.63;;;5.40;;
6145;SDS011;3104;50.348;7.620;2022-10-28T17:19:38;11.30;;;5.80;;
6145;SDS011;3104;50.348;7.620;2022-10-28T17:22:05;10.20;;;5.20;;
6145;SDS011;3104;50.348;7.620;2022-10-28T17:24:31;12.63;;;5.03;;
6145;SDS011;3104;50.348;7.620;2022-10-28T17:26:57;8.00;;;5.50;;
6145;SDS011;3104;50.348;7.620;2022-10-28T17:29:22;14.93;;;5.20;;
6145;SDS011;3104;50.348;7.620;2022-10-28T17:31:48;13.07;;;5.70;;
6145;SDS011;3104;50.348;7.620;2022-10-28T17:34:14;10.67;;;5.67;;
6145;SDS011;3104;50.348;7.620;2022-10-28T17:36:39;9.60;;;5.40;;
6145;SDS011;3104;50.348;7.620;2022-10-28T17:39:05;11.60;;;4.70;;
6145;SDS011;3104;50.348;7.620;2022-10-28T17:41:30;14.30;;;5.27;;
6145;SDS011;3104;50.348;7.620;2022-10-28T17:43:56;11.27;;;5.70;;
6145;SDS011;3104;50.348;7.620;2022-10-28T17:46:21;16.07;;;5.77;;
6145;SDS011;3104;50.348;7.620;2022-10-28T17:48:47;9.53;;;4.87;;
6145;SDS011;3104;50.348;7.620;2022-10-28T17:51:13;10.43;;;4.90;;
6145;SDS011;3104;50.348;7.620;2022-10-28T17:53:39;6.97;;;5.43;;
6145;SDS011;3104;50.348;7.620;2022-10-28T17:56:05;17.13;;;6.27;;
6145;SDS011;3104;50.348;7.620;2022-10-28T17:58:31;7.67;;;5.37;;
6145;SDS011;3104;50.348;7.620;2022-10-28T18:00:57;10.27;;;5.37;;
6145;SDS011;3104;50.348;7.620;2022-10-28T18:03:24;11.40;;;4.80;;
6145;SDS011;3104;50.348;7.620;2022-10-28T18:05:50;11.43;;;4.17;;
6145;SDS011;3104;50.348;7.620;2022-10-28T18:08:16;12.47;;;5.30;;
6145;SDS011;3104;50.348;7.620;2022-10-28T18:10:51;9.30;;;4.70;;
6145;SDS011;3104;50.348;7.620;2022-10-28T18:13:18;7.83;;;4.30;;
6145;SDS011;3104;50.348;7.620;2022-10-28T18:15:51;14.20;;;5.70;;
6145;SDS011;3104;50.348;7.620;2022-10-28T18:18:17;14.60;;;5.00;;
6145;SDS011;3104;50.348;7.620;2022-10-28T18:20:42;10.33;;;4.53;;
6145;SDS011;3104;50.348;7.620;2022-10-28T18:23:08;11.30;;;4.87;;